Time;durP1;ratioP1;P1;durP2;ratioP2;P2;SDS_P1;SDS_P2;PMS_P1;PMS_P2;Temp;Humidity;BMP_temperature;BMP_pressure;BME280_temperature;BME280_humidity;BME280_pressure;Samples;Min_cycle;Max_cycle;Signal;HPM_P1;HPM_P2
2021/07/14 00:02:36;;;;;;;3.90;1.80;;;15.80;98.90;;;;;;5034872;28;20444;-68
2021/07/14 00:05:06;;;;;;;2.50;1.83;;;15.80;99.10;;;;;;5044719;28;20935;-68
2021/07/14 00:07:33;;;;;;;3.37;2.00;;;15.80;99.10;;;;;;5054649;28;20525;-68
2021/07/14 00:10:00;;;;;;;3.47;2.40;;;15.70;99.10;;;;;;5044768;28;20558;-68
2021/07/14 00:12:30;;;;;;;8.33;2.03;;;15.70;99.00;;;;;;5034638;28;20496;-68
2021/07/14 00:23:26;;;;;;;3.63;2.00;;;15.70;99.10;;;;;;5047699;28;20440;-68
2021/07/14 00:25:53;;;;;;;2.57;1.50;;;15.70;99.10;;;;;;5054127;28;20436;-68
2021/07/14 00:28:20;;;;;;;3.13;1.60;;;15.70;99.00;;;;;;5042335;28;20904;-68
2021/07/14 00:30:52;;;;;;;2.90;2.30;;;15.70;99.00;;;;;;5034226;28;20531;-68
2021/07/14 00:33:20;;;;;;;2.83;1.70;;;15.70;99.10;;;;;;5044951;28;20441;-68
2021/07/14 00:35:47;;;;;;;3.03;2.10;;;15.70;99.10;;;;;;5054058;28;20445;-69
2021/07/14 00:38:14;;;;;;;3.80;2.23;;;15.70;98.90;;;;;;5043877;28;20480;-68
2021/07/14 00:40:42;;;;;;;2.60;2.07;;;15.70;99.00;;;;;;5034138;28;20496;-68
2021/07/14 00:43:09;;;;;;;3.50;2.17;;;15.70;99.20;;;;;;5042291;28;20437;-69
2021/07/14 00:45:36;;;;;;;3.43;2.00;;;15.70;99.20;;;;;;5054097;28;20444;-70
2021/07/14 00:48:04;;;;;;;3.70;2.23;;;15.60;99.20;;;;;;5046253;28;20438;-68
2021/07/14 00:50:34;;;;;;;3.10;2.27;;;15.60;99.40;;;;;;5037897;28;20499;-68
2021/07/14 00:53:01;;;;;;;2.57;1.60;;;15.50;99.60;;;;;;5053880;28;20441;-68
2021/07/14 00:55:28;;;;;;;4.23;2.10;;;15.50;99.60;;;;;;5049971;28;20438;-68
2021/07/14 00:57:55;;;;;;;3.93;2.20;;;15.60;99.50;;;;;;5033816;28;20446;-68
2021/07/14 01:00:22;;;;;;;6.00;1.90;;;15.60;99.50;;;;;;5035153;28;20994;-68
2021/07/14 01:02:49;;;;;;;4.47;1.80;;;15.60;99.40;;;;;;5053728;28;20440;-68
2021/07/14 01:05:21;;;;;;;2.70;1.97;;;15.60;99.50;;;;;;5044407;28;20438;-68
2021/07/14 01:07:54;;;;;;;3.93;2.10;;;15.70;99.60;;;;;;5033539;28;20994;-68
2021/07/14 01:10:25;;;;;;;2.93;2.33;;;15.70;99.90;;;;;;5041982;28;20482;-68
2021/07/14 01:13:02;;;;;;;5.37;2.20;;;15.70;99.90;;;;;;5053759;28;20472;-68
2021/07/14 01:15:34;;;;;;;4.03;2.77;;;15.70;99.90;;;;;;5033683;28;20796;-73
2021/07/14 01:18:04;;;;;;;4.70;1.97;;;15.80;99.90;;;;;;5033243;28;20977;-68
2021/07/14 01:20:45;;;;;;;2.90;2.20;;;15.80;99.90;;;;;;5052934;28;20433;-68
2021/07/14 01:23:19;;;;;;;6.90;2.07;;;15.80;99.90;;;;;;5051368;28;20769;-68
2021/07/14 01:26:04;;;;;;;3.43;2.13;;;15.80;99.90;;;;;;5032974;28;20507;-68
2021/07/14 01:28:36;;;;;;;2.87;2.07;;;15.80;99.80;;;;;;5035697;28;20433;-68
2021/07/14 01:31:04;;;;;;;2.93;2.10;;;15.90;99.80;;;;;;5053297;28;20492;-68
2021/07/14 01:33:34;;;;;;;3.43;1.87;;;15.80;99.70;;;;;;5051161;28;20442;-68
2021/07/14 01:36:04;;;;;;;5.10;3.13;;;15.90;99.90;;;;;;5052958;28;20994;-68
2021/07/14 01:38:41;;;;;;;3.47;1.77;;;15.90;99.90;;;;;;5050211;28;20441;-69
2021/07/14 01:41:10;;;;;;;7.17;2.13;;;15.90;99.90;;;;;;5033157;28;20495;-68
2021/07/14 01:43:42;;;;;;;2.90;1.80;;;15.90;99.90;;;;;;5034820;28;20492;-68
2021/07/14 01:46:10;;;;;;;3.90;1.90;;;16.00;99.90;;;;;;5052971;28;20436;-69
2021/07/14 01:48:41;;;;;;;4.83;2.53;;;16.00;99.80;;;;;;5034297;28;20853;-68
2021/07/14 01:51:09;;;;;;;2.57;1.90;;;15.90;99.40;;;;;;5033036;28;20482;-68
2021/07/14 01:53:37;;;;;;;4.13;2.07;;;15.90;98.70;;;;;;5051038;28;20447;-68
2021/07/14 01:56:08;;;;;;;3.80;2.70;;;15.80;98.90;;;;;;5052721;28;20931;-68
2021/07/14 01:58:37;;;;;;;3.50;2.13;;;15.80;99.30;;;;;;5034360;28;20789;-68
2021/07/14 02:01:06;;;;;;;2.90;2.10;;;15.80;99.60;;;;;;5032790;28;20508;-68
2021/07/14 02:03:56;;;;;;;3.90;2.10;;;15.90;99.70;;;;;;5049442;28;20966;-68
2021/07/14 02:06:24;;;;;;;2.80;1.93;;;15.90;99.70;;;;;;5052613;28;20524;-68
2021/07/14 02:08:52;;;;;;;2.67;1.63;;;15.90;99.70;;;;;;5033006;28;20476;-68
2021/07/14 02:11:24;;;;;;;3.80;2.30;;;15.90;99.70;;;;;;5032548;28;20485;-68
2021/07/14 02:13:53;;;;;;;2.33;1.63;;;15.90;99.70;;;;;;5050585;28;20570;-68
2021/07/14 02:16:23;;;;;;;4.13;2.10;;;15.90;99.50;;;;;;5040049;28;20762;-68
2021/07/14 02:18:59;;;;;;;7.10;2.70;;;15.90;99.70;;;;;;5032304;28;20465;-68
2021/07/14 02:21:26;;;;;;;4.30;2.23;;;15.90;99.70;;;;;;5047837;28;20475;-68
2021/07/14 02:23:53;;;;;;;6.10;2.00;;;15.90;99.90;;;;;;5050346;28;20483;-68
2021/07/14 02:26:20;;;;;;;6.13;2.20;;;15.90;99.50;;;;;;5032624;28;20848;-67
2021/07/14 02:28:52;;;;;;;7.53;1.77;;;15.80;99.40;;;;;;5032350;28;20448;-68
2021/07/14 02:31:21;;;;;;;4.20;2.50;;;15.80;99.40;;;;;;5032370;28;20980;-67
2021/07/14 02:33:48;;;;;;;2.50;1.93;;;15.80;99.50;;;;;;5032284;28;20438;-68
2021/07/14 02:36:18;;;;;;;3.87;1.97;;;15.90;99.60;;;;;;5051582;28;20819;-68
2021/07/14 02:38:52;;;;;;;3.90;2.30;;;15.90;99.40;;;;;;5052282;28;20789;-69
2021/07/14 02:41:25;;;;;;;2.87;2.13;;;15.90;99.60;;;;;;5035616;28;20444;-67
2021/07/14 02:43:58;;;;;;;3.27;2.00;;;15.90;99.70;;;;;;5045696;28;20802;-68
2021/07/14 02:46:30;;;;;;;2.93;2.23;;;15.90;99.90;;;;;;5056290;28;20449;-68
2021/07/14 02:49:01;;;;;;;3.10;2.30;;;15.90;99.70;;;;;;5046204;28;20434;-69
2021/07/14 02:51:32;;;;;;;2.73;1.60;;;15.90;99.80;;;;;;5036101;28;20551;-67
2021/07/14 02:54:02;;;;;;;2.73;1.97;;;15.90;99.90;;;;;;5044860;28;20538;-67
2021/07/14 02:56:31;;;;;;;3.80;2.43;;;15.90;99.90;;;;;;5056210;28;20433;-68
2021/07/14 02:59:03;;;;;;;3.37;1.93;;;15.90;99.90;;;;;;5046988;28;20775;-68
2021/07/14 03:01:33;;;;;;;2.83;2.10;;;15.90;99.90;;;;;;5036101;28;21005;-68
2021/07/14 03:04:01;;;;;;;3.80;1.97;;;16.00;99.90;;;;;;5043811;28;20834;-68
2021/07/14 03:06:32;;;;;;;4.10;1.90;;;16.00;99.90;;;;;;5055653;28;20899;-68
2021/07/14 03:09:05;;;;;;;3.17;1.87;;;15.90;99.90;;;;;;5047883;28;20500;-68
2021/07/14 03:11:35;;;;;;;3.33;2.13;;;15.90;99.70;;;;;;5040975;28;20473;-68
2021/07/14 03:14:02;;;;;;;4.23;2.03;;;16.00;99.90;;;;;;5055892;28;20459;-68
2021/07/14 03:16:32;;;;;;;4.10;2.57;;;16.00;99.90;;;;;;5050780;28;20446;-68
2021/07/14 03:19:00;;;;;;;2.83;2.10;;;16.00;99.90;;;;;;5035546;28;20483;-68
2021/07/14 03:21:32;;;;;;;2.97;1.97;;;15.90;99.90;;;;;;5038888;28;20448;-67
2021/07/14 03:24:01;;;;;;;3.40;2.23;;;16.00;99.90;;;;;;5055478;28;20519;-68
2021/07/14 03:26:29;;;;;;;3.60;1.73;;;15.90;99.80;;;;;;5051718;28;20507;-68
2021/07/14 03:28:56;;;;;;;3.03;2.23;;;16.00;99.90;;;;;;5035578;28;20438;-68
2021/07/14 03:31:23;;;;;;;2.67;1.70;;;15.90;99.90;;;;;;5036837;28;20531;-68
2021/07/14 03:33:52;;;;;;;3.90;2.50;;;15.90;99.70;;;;;;5055334;28;20774;-68
2021/07/14 03:36:19;;;;;;;4.20;2.20;;;15.90;99.50;;;;;;5054133;28;20437;-68
2021/07/14 03:38:47;;;;;;;3.00;2.27;;;15.90;99.70;;;;;;5036082;28;20473;-68
2021/07/14 03:41:14;;;;;;;2.87;2.30;;;15.80;99.80;;;;;;5035428;28;20466;-72
2021/07/14 03:43:41;;;;;;;4.40;2.03;;;15.90;99.90;;;;;;5055054;28;20445;-67
2021/07/14 03:46:10;;;;;;;4.20;2.60;;;15.90;99.80;;;;;;5052201;28;20471;-67
2021/07/14 03:48:39;;;;;;;5.00;2.73;;;15.80;99.50;;;;;;5035155;28;20504;-68
2021/07/14 03:51:08;;;;;;;9.10;2.63;;;15.80;99.90;;;;;;5035368;28;20488;-68
2021/07/14 03:53:36;;;;;;;3.50;2.80;;;15.70;99.70;;;;;;5054730;28;20436;-68
2021/07/14 03:56:04;;;;;;;4.03;2.60;;;15.70;99.90;;;;;;5053793;28;20433;-68
2021/07/14 03:58:31;;;;;;;5.70;3.00;;;15.70;99.90;;;;;;5034902;28;20529;-68
2021/07/14 04:00:59;;;;;;;2.77;2.30;;;15.80;99.90;;;;;;5035019;28;20450;-69
2021/07/14 04:03:29;;;;;;;4.23;2.23;;;15.80;99.90;;;;;;5054866;28;20445;-67
2021/07/14 04:05:59;;;;;;;8.07;2.60;;;15.80;99.90;;;;;;5039536;28;20446;-68
2021/07/14 04:08:33;;;;;;;2.77;2.30;;;15.80;99.90;;;;;;5034990;28;20496;-68
2021/07/14 04:11:00;;;;;;;3.20;2.57;;;15.70;99.90;;;;;;5049928;28;20477;-68
2021/07/14 04:13:27;;;;;;;3.20;2.30;;;15.70;99.90;;;;;;5054885;28;20441;-67
2021/07/14 04:15:54;;;;;;;2.80;2.00;;;15.70;99.90;;;;;;5040500;28;20830;-67
2021/07/14 04:18:21;;;;;;;4.00;2.27;;;15.80;99.90;;;;;;5034750;28;20497;-68
2021/07/14 04:20:48;;;;;;;3.83;2.30;;;15.80;99.90;;;;;;5047086;28;21084;-68
2021/07/14 04:23:15;;;;;;;4.10;2.50;;;15.80;99.90;;;;;;5054711;28;20441;-67
2021/07/14 04:25:45;;;;;;;2.90;2.03;;;15.80;99.90;;;;;;5043099;28;20560;-68
2021/07/14 04:28:14;;;;;;;3.83;2.83;;;15.90;99.90;;;;;;5034673;28;20442;-68
2021/07/14 04:30:41;;;;;;;2.87;2.10;;;15.90;99.90;;;;;;5044891;28;20512;-67
2021/07/14 04:33:08;;;;;;;3.53;2.80;;;16.00;99.90;;;;;;5046598;28;20442;-68
2021/07/14 04:35:35;;;;;;;3.03;2.20;;;16.00;99.90;;;;;;5034622;28;20496;-67
2021/07/14 04:38:02;;;;;;;2.60;1.73;;;16.00;99.90;;;;;;5040537;28;20439;-68
2021/07/14 04:40:29;;;;;;;3.30;2.37;;;16.00;99.90;;;;;;5054459;28;20473;-67
2021/07/14 04:42:57;;;;;;;3.20;2.63;;;16.00;99.80;;;;;;5049040;28;20442;-68
2021/07/14 04:45:24;;;;;;;2.60;2.20;;;16.00;99.60;;;;;;5034286;28;20472;-67
2021/07/14 04:47:51;;;;;;;3.30;2.80;;;16.00;99.80;;;;;;5037706;28;21028;-68
2021/07/14 04:50:18;;;;;;;3.33;2.30;;;16.10;99.90;;;;;;5054037;28;20433;-67
2021/07/14 04:52:45;;;;;;;3.60;2.40;;;16.10;99.90;;;;;;5051254;28;20437;-68
2021/07/14 04:55:12;;;;;;;3.23;2.67;;;16.20;99.90;;;;;;5034174;28;20991;-68
2021/07/14 04:57:40;;;;;;;3.43;2.63;;;16.20;99.90;;;;;;5034854;28;20511;-68
2021/07/14 05:00:11;;;;;;;3.47;2.43;;;16.20;99.90;;;;;;5054037;28;20429;-68
2021/07/14 05:02:38;;;;;;;3.87;2.73;;;16.30;99.90;;;;;;5034696;28;20810;-68
2021/07/14 05:05:05;;;;;;;3.13;2.23;;;16.30;99.90;;;;;;5046665;28;20844;-68
2021/07/14 05:07:32;;;;;;;2.93;2.30;;;16.30;99.70;;;;;;5053983;28;20472;-68
2021/07/14 05:09:59;;;;;;;3.30;2.80;;;16.30;99.40;;;;;;5041978;28;20430;-67
2021/07/14 05:12:27;;;;;;;4.20;2.90;;;16.30;99.10;;;;;;5034825;28;20517;-67
2021/07/14 05:14:54;;;;;;;4.87;3.00;;;16.30;99.10;;;;;;5043472;28;20445;-67
2021/07/14 05:17:22;;;;;;;4.93;2.97;;;16.20;99.10;;;;;;5053425;28;21041;-68
2021/07/14 05:19:49;;;;;;;3.40;2.50;;;16.20;99.40;;;;;;5047048;28;20446;-72
2021/07/14 05:22:16;;;;;;;3.87;2.97;;;16.20;99.60;;;;;;5043894;28;20524;-68
2021/07/14 05:24:47;;;;;;;3.30;2.53;;;16.30;99.50;;;;;;5041314;28;20516;-70
2021/07/14 05:27:17;;;;;;;4.10;3.30;;;16.30;99.50;;;;;;5045147;28;20437;-68
2021/07/14 05:29:44;;;;;;;7.43;3.67;;;16.30;98.60;;;;;;5050292;28;20504;-68
2021/07/14 05:32:11;;;;;;;4.00;2.90;;;16.20;98.60;;;;;;5050129;28;20477;-68
2021/07/14 05:34:39;;;;;;;3.40;2.67;;;16.20;98.80;;;;;;5049514;28;20510;-68
2021/07/14 05:37:06;;;;;;;4.30;2.10;;;16.20;98.40;;;;;;5043582;28;20434;-68
2021/07/14 05:39:33;;;;;;;3.30;1.43;;;16.10;98.00;;;;;;5032647;28;20437;-67
2021/07/14 05:42:01;;;;;;;3.70;1.70;;;16.10;98.00;;;;;;5032861;28;20442;-68
2021/07/14 05:44:28;;;;;;;2.33;1.40;;;16.30;98.30;;;;;;5050187;28;20449;-68
2021/07/14 05:46:56;;;;;;;2.53;1.70;;;16.40;98.30;;;;;;5045906;28;20792;-68
2021/07/14 05:49:24;;;;;;;5.60;2.80;;;16.50;98.50;;;;;;5033036;28;20474;-68
2021/07/14 05:51:54;;;;;;;4.90;1.73;;;16.70;98.70;;;;;;5035263;28;20539;-69
2021/07/14 05:54:21;;;;;;;2.60;1.50;;;16.90;98.40;;;;;;5032746;28;20920;-68
2021/07/14 05:56:48;;;;;;;3.13;1.83;;;16.90;97.80;;;;;;5032118;28;20449;-68
2021/07/14 05:59:15;;;;;;;2.60;1.53;;;17.10;98.10;;;;;;5032383;28;20441;-68
2021/07/14 06:01:42;;;;;;;2.47;1.50;;;17.20;98.30;;;;;;5032641;28;20525;-68
2021/07/14 06:04:18;;;;;;;2.87;1.40;;;17.30;97.30;;;;;;5031560;28;20438;-68
2021/07/14 06:06:44;;;;;;;2.87;1.40;;;17.40;96.70;;;;;;5031611;28;20441;-68
2021/07/14 06:09:15;;;;;;;2.07;1.20;;;17.40;96.30;;;;;;5036638;28;20529;-68
2021/07/14 06:11:42;;;;;;;2.23;1.20;;;17.40;95.20;;;;;;5031155;28;20473;-69
2021/07/14 06:14:09;;;;;;;6.87;1.30;;;17.40;94.50;;;;;;5042672;28;20472;-67
2021/07/14 06:16:36;;;;;;;3.23;1.73;;;17.40;94.60;;;;;;5041767;28;20457;-68
2021/07/14 06:19:04;;;;;;;3.10;1.10;;;17.40;94.50;;;;;;5038617;28;20461;-70
2021/07/14 06:21:30;;;;;;;2.43;1.33;;;17.40;94.30;;;;;;5032187;28;21072;-68
2021/07/14 06:23:57;;;;;;;2.43;1.40;;;17.40;94.40;;;;;;5048434;28;20433;-68
2021/07/14 06:26:26;;;;;;;2.10;1.50;;;17.40;94.30;;;;;;5049694;28;20558;-69
2021/07/14 06:28:53;;;;;;;1.93;1.23;;;17.40;94.20;;;;;;5047838;28;20540;-69
2021/07/14 06:31:19;;;;;;;2.67;1.13;;;17.30;94.30;;;;;;5034958;28;20564;-69
2021/07/14 06:33:47;;;;;;;2.00;1.17;;;17.30;93.90;;;;;;5048354;28;20441;-69
2021/07/14 06:36:14;;;;;;;4.30;1.50;;;17.30;93.40;;;;;;5045114;28;20449;-73
2021/07/14 06:38:41;;;;;;;2.20;1.10;;;17.20;93.40;;;;;;5041416;28;20521;-69
2021/07/14 06:41:08;;;;;;;2.23;1.40;;;17.20;93.70;;;;;;5032185;28;20535;-71
2021/07/14 06:43:45;;;;;;;3.47;1.80;;;17.20;94.30;;;;;;5032102;28;20440;-69
2021/07/14 06:46:13;;;;;;;3.50;1.77;;;17.30;94.50;;;;;;5032318;28;20429;-68
2021/07/14 06:48:41;;;;;;;5.30;2.30;;;17.30;94.40;;;;;;5038128;28;20490;-68
2021/07/14 06:51:09;;;;;;;3.00;1.93;;;17.30;94.60;;;;;;5049867;28;20467;-68
2021/07/14 06:53:36;;;;;;;3.93;1.50;;;17.40;94.70;;;;;;5045271;28;20471;-68
2021/07/14 06:56:04;;;;;;;8.10;6.33;;;17.50;94.90;;;;;;5043034;28;20477;-68
2021/07/14 06:58:33;;;;;;;6.43;3.67;;;17.50;94.00;;;;;;5048658;28;20437;-68
2021/07/14 07:01:02;;;;;;;4.27;1.57;;;17.60;94.10;;;;;;5048348;28;20469;-69
2021/07/14 07:03:29;;;;;;;2.50;1.57;;;17.70;94.00;;;;;;5045891;28;20432;-68
2021/07/14 07:05:56;;;;;;;11.10;8.73;;;17.60;92.70;;;;;;5048960;28;20437;-68
2021/07/14 07:08:23;;;;;;;8.87;7.30;;;17.70;92.50;;;;;;5049921;28;20433;-69
2021/07/14 07:10:50;;;;;;;12.43;8.67;;;17.70;92.30;;;;;;5048007;28;20429;-69
2021/07/14 07:13:18;;;;;;;7.67;6.60;;;17.70;92.70;;;;;;5049262;28;21083;-68
2021/07/14 07:15:45;;;;;;;2.70;1.40;;;17.80;92.80;;;;;;5048837;28;20453;-68
2021/07/14 07:18:19;;;;;;;2.00;1.07;;;17.90;91.80;;;;;;5040592;28;20473;-68
2021/07/14 07:20:46;;;;;;;3.17;1.90;;;17.90;91.80;;;;;;5045802;28;20429;-68
2021/07/14 07:23:13;;;;;;;3.07;1.60;;;18.00;92.50;;;;;;5042471;28;20441;-68
2021/07/14 07:25:40;;;;;;;8.63;5.20;;;18.20;92.70;;;;;;5032055;28;20836;-68
2021/07/14 07:28:13;;;;;;;14.93;9.73;;;18.40;92.40;;;;;;5039198;28;20511;-69
2021/07/14 07:30:41;;;;;;;12.50;9.40;;;18.60;91.90;;;;;;5053485;28;20537;-68
2021/07/14 07:33:08;;;;;;;3.23;2.17;;;18.70;91.00;;;;;;5051980;28;20481;-69
2021/07/14 07:35:42;;;;;;;2.07;1.20;;;18.90;91.10;;;;;;5052368;28;20835;-69
2021/07/14 07:38:09;;;;;;;3.73;2.00;;;19.10;91.00;;;;;;5047614;28;20492;-69
2021/07/14 07:40:36;;;;;;;3.57;1.80;;;19.40;90.40;;;;;;5035423;28;20983;-69
2021/07/14 07:43:04;;;;;;;4.70;1.73;;;19.60;90.50;;;;;;5035485;28;20499;-70
2021/07/14 07:45:31;;;;;;;2.40;1.87;;;19.80;90.90;;;;;;5049353;28;20794;-69
2021/07/14 07:47:58;;;;;;;2.27;1.17;;;19.80;90.70;;;;;;5041612;28;20438;-69
2021/07/14 07:50:26;;;;;;;2.33;1.10;;;19.90;90.50;;;;;;5035340;28;20515;-68
2021/07/14 07:52:55;;;;;;;2.80;1.40;;;19.80;87.70;;;;;;5035164;28;20531;-69
2021/07/14 07:55:22;;;;;;;2.33;1.50;;;19.70;85.60;;;;;;5035708;28;20442;-69
2021/07/14 07:57:49;;;;;;;5.90;1.43;;;19.50;83.40;;;;;;5035614;28;20543;-69
2021/07/14 08:00:21;;;;;;;2.73;1.50;;;19.40;85.30;;;;;;5035740;28;20924;-69
2021/07/14 08:02:49;;;;;;;3.20;1.30;;;19.50;87.70;;;;;;5040535;28;20453;-68
2021/07/14 08:05:16;;;;;;;2.57;1.70;;;19.60;88.60;;;;;;5037252;28;20463;-69
2021/07/14 08:07:43;;;;;;;4.63;1.20;;;19.60;84.20;;;;;;5038645;28;20515;-69
2021/07/14 08:10:13;;;;;;;2.90;1.47;;;19.60;84.40;;;;;;5036765;28;20450;-69
2021/07/14 08:12:41;;;;;;;2.17;1.47;;;19.70;86.80;;;;;;5041715;28;20596;-69
2021/07/14 08:15:11;;;;;;;2.17;0.90;;;19.70;86.70;;;;;;5036825;28;20504;-69
2021/07/14 08:17:38;;;;;;;2.17;1.20;;;19.80;83.40;;;;;;5036736;28;20538;-69
2021/07/14 08:20:10;;;;;;;2.30;1.47;;;19.60;81.50;;;;;;5035065;28;20539;-69
2021/07/14 08:22:38;;;;;;;2.00;1.00;;;19.40;81.20;;;;;;5037357;28;20438;-69
2021/07/14 08:25:07;;;;;;;2.00;1.50;;;19.30;82.50;;;;;;5034816;28;20503;-69
2021/07/14 08:27:38;;;;;;;2.27;1.60;;;19.30;83.30;;;;;;5034611;28;20446;-69
2021/07/14 08:30:07;;;;;;;3.40;1.70;;;19.30;83.20;;;;;;5040924;28;20436;-69
2021/07/14 08:32:34;;;;;;;3.40;1.73;;;19.30;82.50;;;;;;5039864;28;21098;-69
2021/07/14 08:35:03;;;;;;;3.30;1.40;;;19.40;84.20;;;;;;5037552;28;20445;-68
2021/07/14 08:37:30;;;;;;;5.10;1.47;;;19.50;86.40;;;;;;5039655;28;20465;-69
2021/07/14 08:39:58;;;;;;;2.60;1.83;;;19.60;88.10;;;;;;5037565;28;20437;-69
2021/07/14 08:42:26;;;;;;;3.00;1.60;;;19.90;86.80;;;;;;5039849;28;20444;-71
2021/07/14 08:44:55;;;;;;;2.13;1.10;;;20.10;87.30;;;;;;5043385;28;20437;-68
2021/07/14 08:47:22;;;;;;;2.67;1.30;;;20.50;87.40;;;;;;5036465;28;20442;-69
2021/07/14 08:49:51;;;;;;;2.20;1.30;;;20.80;85.20;;;;;;5035932;28;20463;-68
2021/07/14 08:52:20;;;;;;;2.70;1.20;;;20.90;82.60;;;;;;5034957;28;20540;-69
2021/07/14 08:54:47;;;;;;;2.67;1.30;;;21.00;83.00;;;;;;5036568;28;20466;-69
2021/07/14 08:57:17;;;;;;;2.70;1.30;;;21.30;83.00;;;;;;5034482;28;20437;-69
2021/07/14 08:59:45;;;;;;;1.97;1.00;;;21.50;82.30;;;;;;5038800;28;20532;-69
2021/07/14 09:02:15;;;;;;;2.10;1.00;;;21.60;82.40;;;;;;5037938;28;20452;-69
2021/07/14 09:04:43;;;;;;;2.70;1.00;;;21.70;79.50;;;;;;5039447;28;20445;-69
2021/07/14 09:07:12;;;;;;;3.07;1.27;;;21.80;78.80;;;;;;5036767;28;20495;-69
2021/07/14 09:09:39;;;;;;;2.20;1.30;;;21.90;78.40;;;;;;5034885;28;20932;-69
2021/07/14 09:12:14;;;;;;;4.00;1.50;;;22.00;77.50;;;;;;5034478;28;21240;-71
2021/07/14 09:14:43;;;;;;;3.07;1.30;;;22.00;75.90;;;;;;5034247;28;20840;-69
2021/07/14 09:17:25;;;;;;;3.43;1.40;;;22.00;73.90;;;;;;5032830;28;20552;-69
2021/07/14 09:19:54;;;;;;;2.33;1.40;;;22.00;73.40;;;;;;5039896;28;20440;-69
2021/07/14 09:22:23;;;;;;;3.20;1.20;;;21.90;73.20;;;;;;5033184;28;20487;-69
2021/07/14 09:24:51;;;;;;;2.10;1.10;;;21.70;72.10;;;;;;5033010;28;20484;-69
2021/07/14 09:27:19;;;;;;;2.13;1.00;;;21.50;71.70;;;;;;5032836;28;20476;-69
2021/07/14 09:30:06;;;;;;;3.57;1.07;;;21.30;71.30;;;;;;5033482;28;20520;-70
2021/07/14 09:32:57;;;;;;;2.37;1.23;;;21.10;72.70;;;;;;5032305;28;20521;-69
2021/07/14 09:35:35;;;;;;;3.13;1.90;;;21.00;72.30;;;;;;5032582;28;20450;-69
2021/07/14 09:38:04;;;;;;;6.27;1.57;;;20.80;73.00;;;;;;5032866;28;20540;-69
2021/07/14 09:40:37;;;;;;;8.47;2.23;;;20.70;73.00;;;;;;5032876;28;20512;-74
2021/07/14 09:43:08;;;;;;;2.03;1.10;;;20.60;74.10;;;;;;5033032;28;20614;-67
2021/07/14 09:45:54;;;;;;;1.90;1.20;;;20.50;74.60;;;;;;5032892;28;20842;-69
2021/07/14 09:48:25;;;;;;;2.73;1.60;;;20.50;76.40;;;;;;5036332;28;20509;-68
2021/07/14 09:50:54;;;;;;;2.13;1.13;;;20.40;76.70;;;;;;5034910;28;20441;-68
2021/07/14 09:53:24;;;;;;;2.70;1.30;;;20.40;76.00;;;;;;5032459;28;20581;-67
2021/07/14 09:55:53;;;;;;;2.47;1.27;;;20.30;75.60;;;;;;5036543;28;20496;-68
2021/07/14 09:58:26;;;;;;;2.60;1.40;;;20.30;76.60;;;;;;5033093;28;20974;-67
2021/07/14 10:00:55;;;;;;;2.27;1.53;;;20.20;76.90;;;;;;5036248;28;20438;-68
2021/07/14 10:03:29;;;;;;;2.50;1.50;;;20.30;77.30;;;;;;5031255;28;20430;-67
2021/07/14 10:06:08;;;;;;;3.63;1.37;;;20.30;77.10;;;;;;5032486;28;20524;-68
2021/07/14 10:08:37;;;;;;;2.23;1.43;;;20.20;77.40;;;;;;5031993;28;20792;-69
2021/07/14 10:11:19;;;;;;;5.20;1.37;;;20.20;78.10;;;;;;5044673;28;20549;-68
2021/07/14 10:14:01;;;;;;;3.00;1.50;;;20.20;77.90;;;;;;5034512;28;20516;-68
2021/07/14 10:16:33;;;;;;;2.60;1.50;;;20.20;79.00;;;;;;5033851;28;20460;-68
2021/07/14 10:19:16;;;;;;;1.90;1.10;;;20.30;79.10;;;;;;5033900;28;20999;-69
2021/07/14 10:21:45;;;;;;;4.13;1.57;;;20.30;77.90;;;;;;5052304;28;20466;-68
2021/07/14 10:24:14;;;;;;;2.77;1.47;;;20.20;77.10;;;;;;5051547;28;20526;-68
2021/07/14 10:26:44;;;;;;;2.57;1.67;;;20.20;78.20;;;;;;5052616;28;20432;-68
2021/07/14 10:29:11;;;;;;;2.67;1.60;;;20.20;78.10;;;;;;5050508;28;20846;-67
2021/07/14 10:32:12;;;;;;;2.07;1.30;;;20.20;77.60;;;;;;5041253;28;20827;-67
2021/07/14 10:34:41;;;;;;;2.70;1.40;;;20.20;77.10;;;;;;5033015;28;20851;-68
2021/07/14 10:37:10;;;;;;;2.10;1.20;;;20.20;75.40;;;;;;5032791;28;20537;-69
2021/07/14 10:39:37;;;;;;;4.00;1.23;;;20.20;75.20;;;;;;5033124;28;20440;-69
2021/07/14 10:42:05;;;;;;;3.20;1.60;;;20.10;74.90;;;;;;5033144;28;20529;-68
2021/07/14 10:44:32;;;;;;;4.60;2.27;;;20.20;76.00;;;;;;5034178;28;20525;-68
2021/07/14 10:46:59;;;;;;;2.63;1.63;;;20.30;77.20;;;;;;5044310;28;21000;-68
2021/07/14 10:49:27;;;;;;;2.23;1.33;;;20.30;76.60;;;;;;5033035;28;20481;-68
2021/07/14 10:51:56;;;;;;;2.17;1.13;;;20.30;75.70;;;;;;5033157;28;20441;-68
2021/07/14 10:54:28;;;;;;;5.53;1.90;;;20.30;76.20;;;;;;5033190;28;20579;-68
2021/07/14 10:56:55;;;;;;;3.03;1.20;;;20.30;75.70;;;;;;5045668;28;20951;-68
2021/07/14 10:59:27;;;;;;;2.70;1.73;;;20.30;76.10;;;;;;5043266;28;20452;-68
2021/07/14 11:01:56;;;;;;;3.20;1.47;;;20.30;76.10;;;;;;5052057;28;20914;-70
2021/07/14 11:04:54;;;;;;;2.83;1.60;;;20.20;75.30;;;;;;5036151;28;20480;-68
2021/07/14 11:07:38;;;;;;;2.53;1.63;;;20.20;76.50;;;;;;5041885;28;20466;-68
2021/07/14 11:10:25;;;;;;;4.17;2.07;;;20.10;76.10;;;;;;5036078;28;20491;-68
2021/07/14 11:12:52;;;;;;;3.20;1.53;;;20.00;75.70;;;;;;5035589;28;20987;-68
2021/07/14 11:15:34;;;;;;;4.47;2.30;;;20.00;75.40;;;;;;5035690;28;20437;-68
2021/07/14 11:18:02;;;;;;;2.10;1.30;;;19.90;76.40;;;;;;5040271;28;20492;-68
2021/07/14 11:20:40;;;;;;;2.40;1.30;;;19.80;77.10;;;;;;5055555;28;20860;-68
2021/07/14 11:23:20;;;;;;;2.40;1.63;;;19.70;77.10;;;;;;5044085;28;20920;-68
2021/07/14 11:25:50;;;;;;;2.70;1.63;;;19.60;77.30;;;;;;5045084;28;20440;-68
2021/07/14 11:28:18;;;;;;;2.50;1.33;;;19.50;77.50;;;;;;5051836;28;20459;-68
2021/07/14 11:30:47;;;;;;;3.10;1.60;;;19.50;77.70;;;;;;5044495;28;20495;-69
2021/07/14 11:33:23;;;;;;;4.37;2.00;;;19.40;76.70;;;;;;5034999;28;20481;-68
2021/07/14 11:36:02;;;;;;;2.60;1.50;;;19.30;76.50;;;;;;5050592;28;20819;-69
2021/07/14 11:38:44;;;;;;;2.30;1.60;;;19.30;77.60;;;;;;5054919;28;20938;-68
2021/07/14 11:41:23;;;;;;;3.57;1.70;;;19.20;78.50;;;;;;5055676;28;20445;-68
2021/07/14 11:43:53;;;;;;;4.70;2.33;;;19.20;78.90;;;;;;5050025;28;20442;-68
2021/07/14 11:46:26;;;;;;;3.00;1.53;;;19.20;81.10;;;;;;5035522;28;20433;-68
2021/07/14 11:49:05;;;;;;;3.60;1.70;;;19.10;81.70;;;;;;5039667;28;20476;-67
2021/07/14 11:51:36;;;;;;;4.80;1.73;;;19.10;81.50;;;;;;5055110;28;20498;-68
2021/07/14 11:54:21;;;;;;;2.70;1.73;;;19.00;82.10;;;;;;5045218;28;20484;-68
2021/07/14 11:56:51;;;;;;;3.10;2.20;;;19.00;81.10;;;;;;5049909;28;20520;-68
2021/07/14 11:59:21;;;;;;;3.10;1.57;;;19.00;81.40;;;;;;5054518;28;20866;-68
2021/07/14 12:02:03;;;;;;;2.70;1.87;;;18.90;81.70;;;;;;5055220;28;20437;-68
2021/07/14 12:04:35;;;;;;;3.67;1.70;;;18.90;82.20;;;;;;5034287;28;20438;-68
2021/07/14 12:07:12;;;;;;;8.60;3.83;;;18.80;82.50;;;;;;5034627;28;20925;-69
2021/07/14 12:09:46;;;;;;;5.10;3.43;;;18.80;82.10;;;;;;5034635;28;20506;-68
2021/07/14 12:12:20;;;;;;;5.90;3.10;;;18.70;83.30;;;;;;5034182;28;20436;-68
2021/07/14 12:14:55;;;;;;;7.30;2.70;;;18.60;84.40;;;;;;5047951;28;21045;-68
2021/07/14 12:17:25;;;;;;;3.97;2.80;;;18.50;86.90;;;;;;5040254;28;20466;-69
2021/07/14 12:19:54;;;;;;;4.27;2.30;;;18.30;89.00;;;;;;5033139;28;20971;-68
2021/07/14 12:22:25;;;;;;;4.13;2.90;;;18.30;89.80;;;;;;5034475;28;20452;-68
2021/07/14 12:24:56;;;;;;;4.57;2.93;;;18.10;90.20;;;;;;5034519;28;20504;-68
2021/07/14 12:27:25;;;;;;;5.40;2.60;;;18.00;90.20;;;;;;5051846;28;20436;-68
2021/07/14 12:29:55;;;;;;;3.63;2.67;;;18.00;90.40;;;;;;5050531;28;20437;-68
2021/07/14 12:32:33;;;;;;;3.67;2.73;;;18.00;90.90;;;;;;5045088;28;20929;-69
2021/07/14 12:35:01;;;;;;;3.33;2.70;;;18.00;90.80;;;;;;5048844;28;20485;-68
2021/07/14 12:37:28;;;;;;;4.40;2.70;;;17.90;90.80;;;;;;5050640;28;20468;-68
2021/07/14 12:39:57;;;;;;;6.30;3.67;;;18.00;91.30;;;;;;5050856;28;20429;-68
2021/07/14 12:42:24;;;;;;;5.03;3.20;;;17.90;91.10;;;;;;5050537;28;20437;-68
2021/07/14 12:44:52;;;;;;;3.93;2.60;;;18.00;91.30;;;;;;5051748;28;20452;-68
2021/07/14 12:47:24;;;;;;;3.60;2.90;;;18.00;91.30;;;;;;5046401;28;20426;-69
2021/07/14 12:50:06;;;;;;;6.37;3.73;;;17.90;91.70;;;;;;5034418;28;20445;-68
2021/07/14 12:52:33;;;;;;;6.70;3.27;;;18.00;92.20;;;;;;5033615;28;20833;-69
2021/07/14 12:55:02;;;;;;;6.07;3.17;;;18.00;92.60;;;;;;5033450;28;20493;-68
2021/07/14 12:57:30;;;;;;;5.43;3.23;;;18.20;93.50;;;;;;5034184;28;20440;-68
2021/07/14 13:00:03;;;;;;;5.47;3.13;;;18.40;93.60;;;;;;5034657;28;20964;-68
2021/07/14 13:02:38;;;;;;;4.60;2.77;;;18.60;94.00;;;;;;5038508;28;20506;-68
2021/07/14 13:05:08;;;;;;;4.70;3.20;;;18.90;93.90;;;;;;5034459;28;20528;-69
2021/07/14 13:07:40;;;;;;;4.47;2.80;;;19.10;93.50;;;;;;5050729;28;20433;-68
2021/07/14 13:10:14;;;;;;;3.67;2.63;;;19.30;92.60;;;;;;5050684;28;20868;-69